Latest Weather Observations for Horsley Park

IDN60901

Issued at 10:21 pm EST Saturday 30 May 2015 (issued every 10 minutes, with the page automatically refreshed every 10 minutes)

About weather observations | Map of Sydney area stations | Latest observations for Sydney area | Other Formats
Station Details ID: 067119 Name: HORSLEY PARK EQUESTRIAN CENTRE AWS Lat: -33.85 Lon: 150.86 Height: 100.0 m
Data from the previous 72 hours. | See also: Recent months at Horsley Park
Date/Time
EST
Tmp

°C
App
Tmp
°C
Dew
Point
°C
Rel
Hum
%
Delta-T

°C
Wind Press
QNH
hPa
Press
MSL
hPa
Rain
since
9 am
mm
Dir
 
Spd
km/h
Gust
km/h
Spd
kts
Gust
kts
30/10:00pm 12.7 9.8 6.7 67 2.9 SW 11 15 6 8 - - 0.2
30/09:30pm 12.9 10.2 7.4 69 2.7 SW 11 13 6 7 - - 0.2
30/09:00pm 13.3 11.1 7.7 69 2.8 SW 9 15 5 8 - - 0.2
30/08:30pm 13.2 12.1 8.5 73 2.4 WSW 4 7 2 4 - - 0.2
30/08:00pm 13.1 11.7 8.8 75 2.2 WSW 6 9 3 5 - - 0.2
30/07:30pm 12.6 11.5 9.8 83 1.4 WSW 6 9 3 5 - - 0.2
30/07:00pm 12.1 11.7 9.7 85 1.2 WSW 2 7 1 4 - - 0.2
30/06:30pm 11.7 11.5 9.1 84 1.3 CALM 0 0 0 0 - - 0.2
30/06:00pm 12.0 11.5 9.4 84 1.3 NW 2 4 1 2 - - 0.2
30/05:30pm 12.4 12.4 9.8 84 1.3 CALM 0 4 0 2 - - 0.2
30/05:00pm 12.4 11.7 10.1 86 1.2 S 4 4 2 2 - - 0.2
30/04:30pm 12.9 12.3 10.4 85 1.3 SSW 4 6 2 3 - - 0.2
30/04:00pm 13.5 13.6 10.3 81 1.7 CALM 0 0 0 0 - - 0.2
30/03:30pm 13.6 13.0 10.4 81 1.7 SSW 4 6 2 3 - - 0.2
30/03:00pm 13.9 14.1 10.5 80 1.8 CALM 0 0 0 0 - - 0.2
30/02:30pm 14.4 14.2 10.6 78 2.0 WSW 2 4 1 2 - - 0.2
30/02:00pm 14.7 14.0 9.9 73 2.5 NW 4 7 2 4 - - 0.2
30/01:30pm 15.1 14.0 9.9 71 2.7 NW 6 9 3 5 - - 0.2
30/01:00pm 15.5 14.6 9.2 66 3.3 NNW 4 7 2 4 - - 0.2
30/12:30pm 15.6 14.9 10.2 70 2.8 NW 4 7 2 4 - - 0.2
30/12:00pm 15.5 15.2 10.1 70 2.8 N 2 6 1 3 - - 0.2
30/11:30am 14.9 14.2 10.1 73 2.5 NNW 4 7 2 4 - - 0.2
30/11:00am 14.6 13.8 9.8 73 2.5 NNW 4 6 2 3 - - 0.0
30/10:30am 14.5 13.9 10.3 76 2.2 NW 4 6 2 3 - - 0.0
30/10:00am 13.3 13.4 10.3 82 1.6 CALM 0 2 0 1 - - 0.0
30/09:30am 11.5 10.6 9.2 86 1.2 WNW 4 7 2 4 - - 0.0
30/09:00am 11.1 10.2 9.2 88 1.0 WNW 4 6 2 3 - - 0.4
30/08:30am 10.7 9.5 9.6 93 0.6 WNW 6 7 3 4 - - 0.4
30/08:00am 9.0 8.6 8.2 95 0.4 CALM 0 0 0 0 - - 0.4
30/07:30am 8.8 8.3 8.0 95 0.4 CALM 0 2 0 1 - - 0.4
30/07:00am 9.0 7.9 8.6 97 0.2 W 4 6 2 3 - - 0.4
30/06:30am 8.1 7.5 7.3 95 0.4 CALM 0 0 0 0 - - 0.4
30/06:00am 8.0 6.9 7.1 94 0.4 WNW 2 4 1 2 - - 0.4
30/05:30am 7.9 7.2 6.8 93 0.5 CALM 0 0 0 0 - - 0.4
30/05:00am 8.7 8.2 7.8 94 0.4 CALM 0 0 0 0 - - 0.4
30/04:30am 8.9 8.4 7.7 92 0.6 CALM 0 0 0 0 - - 0.4
30/04:00am 8.9 7.5 7.2 89 0.8 N 4 6 2 3 - - 0.4
30/03:30am 9.5 8.4 6.8 83 1.3 WNW 2 6 1 3 - - 0.4
30/03:00am 11.4 9.7 8.3 81 1.5 SSW 7 11 4 6 - - 0.4
30/02:30am 10.1 8.6 9.0 93 0.5 SSW 7 9 4 5 - - 0.4
30/02:00am 8.6 7.3 7.5 93 0.5 SW 4 7 2 4 - - 0.4
30/01:30am 8.3 6.4 6.9 91 0.7 SW 6 6 3 3 - - 0.4
30/01:00am 9.4 8.4 7.5 88 0.9 WNW 2 4 1 2 - - 0.4
30/12:30am 10.2 9.6 7.6 84 1.3 CALM 0 0 0 0 - - 0.4
30/12:00am 12.1 11.0 8.4 78 1.8 WSW 4 6 2 3 - - 0.4
 
Date/Time
EST
Tmp

°C
App
Tmp
°C
Dew
Point
°C
Rel
Hum
%
Delta-T

°C
Wind Press
QNH
hPa
Press
MSL
hPa
Rain
since
9 am
mm
Dir
 
Spd
km/h
Gust
km/h
Spd
kts
Gust
kts
29/11:30pm 12.4 11.0 8.7 78 1.9 WSW 6 9 3 5 - - 0.4
29/11:00pm 12.1 10.5 8.6 79 1.7 SW 7 9 4 5 - - 0.4
29/10:30pm 12.6 11.1 9.1 79 1.8 WSW 7 11 4 6 - - 0.4
29/10:00pm 12.5 11.0 9.0 79 1.8 SW 7 9 4 5 - - 0.4
29/09:30pm 13.7 11.9 9.6 76 2.1 WSW 9 13 5 7 - - 0.4
29/09:00pm 14.4 12.7 10.0 75 2.3 WSW 9 15 5 8 - - 0.4
29/08:30pm 14.0 13.1 11.2 83 1.5 WSW 7 9 4 5 - - 0.4
29/08:00pm 14.3 14.0 13.3 94 0.6 SW 7 9 4 5 - - 0.4
29/07:30pm 14.0 14.6 13.1 94 0.5 SSW 2 4 1 2 - - 0.4
29/07:00pm 14.1 15.0 13.0 93 0.6 CALM 0 0 0 0 - - 0.4
29/06:30pm 13.4 13.3 10.8 84 1.4 NW 2 4 1 2 - - 0.4
29/06:00pm 13.8 14.1 11.0 83 1.5 CALM 0 4 0 2 - - 0.4
29/05:30pm 14.3 14.3 11.1 81 1.7 NW 2 4 1 2 - - 0.4
29/05:00pm 15.0 14.8 10.6 75 2.3 WNW 2 6 1 3 - - 0.4
29/04:30pm 17.5 17.1 11.1 66 3.5 NW 4 9 2 5 - - 0.4
29/04:00pm 18.4 17.8 10.5 60 4.3 NW 4 9 2 5 - - 0.4
29/03:30pm 18.8 19.1 12.1 65 3.7 NW 2 6 1 3 - - 0.4
29/03:00pm 18.3 18.9 13.2 72 2.9 WNW 2 4 1 2 - - 0.4
29/02:30pm 18.1 18.7 13.0 72 2.9 NW 2 6 1 3 - - 0.4
29/02:00pm 17.9 18.1 13.2 74 2.7 W 4 7 2 4 - - 0.4
29/01:30pm 17.8 18.5 13.5 76 2.4 NW 2 6 1 3 - - 0.4
29/01:00pm 17.4 17.7 13.5 78 2.2 WNW 4 6 2 3 - - 0.4
29/12:30pm 17.2 17.0 12.9 76 2.4 WNW 6 9 3 5 - - 0.4
29/12:00pm 17.3 17.0 12.6 74 2.6 WSW 6 9 3 5 - - 0.4
29/11:30am 17.0 16.1 12.5 75 2.5 SW 9 15 5 8 - - 0.4
29/11:00am 17.4 17.0 12.5 73 2.7 SW 6 9 3 5 - - 0.4
29/10:30am 16.8 17.5 12.3 75 2.5 CALM 0 0 0 0 - - 0.4
29/10:00am 16.4 17.2 12.4 77 2.2 CALM 0 0 0 0 - - 0.4
29/09:30am 16.0 16.6 11.8 76 2.3 CALM 0 2 0 1 - - 0.4
29/09:00am 16.1 15.9 11.7 75 2.4 WNW 4 6 2 3 - - 0.0
29/08:30am 16.6 16.3 11.5 72 2.8 NW 4 7 2 4 - - 0.0
29/08:00am 16.7 16.0 11.4 71 2.9 NW 6 9 3 5 - - 0.0
29/07:30am 17.0 15.7 11.3 69 3.1 NNW 9 17 5 9 - - 0.0
29/07:00am 16.2 15.3 11.4 73 2.6 NNW 7 11 4 6 - - 0.0
29/06:30am 16.6 15.6 11.1 70 3.0 NNW 7 13 4 7 - - 0.0
29/06:00am 16.6 15.7 11.5 72 2.8 NNW 7 15 4 8 - - 0.0
29/05:30am 16.1 15.2 11.5 74 2.5 NNW 7 11 4 6 - - 0.0
29/05:00am 15.8 15.0 11.6 76 2.3 NNW 7 15 4 8 - - 0.0
29/04:30am 15.7 15.0 11.5 76 2.3 N 6 9 3 5 - - 0.0
29/04:00am 15.4 15.5 11.6 78 2.1 NNW 2 9 1 5 - - 0.0
29/03:30am 15.4 15.1 11.6 78 2.1 N 4 7 2 4 - - 0.0
29/03:00am 15.4 14.6 11.6 78 2.1 NNW 7 11 4 6 - - 0.0
29/02:30am 15.2 14.6 11.6 79 1.9 N 6 9 3 5 - - 0.0
29/02:00am 15.4 14.6 11.8 79 2.0 N 7 15 4 8 - - 0.0
29/01:30am 15.2 14.9 11.6 79 1.9 N 4 9 2 5 - - 0.0
29/01:00am 15.4 15.5 11.6 78 2.1 NNW 2 6 1 3 - - 0.0
29/12:30am 15.4 15.1 11.6 78 2.1 NNW 4 7 2 4 - - 0.0
29/12:00am 15.2 15.3 11.6 79 1.9 NNW 2 6 1 3 - - 0.0
 
Date/Time
EST
Tmp

°C
App
Tmp
°C
Dew
Point
°C
Rel
Hum
%
Delta-T

°C
Wind Press
QNH
hPa
Press
MSL
hPa
Rain
since
9 am
mm
Dir
 
Spd
km/h
Gust
km/h
Spd
kts
Gust
kts
28/11:30pm 15.2 15.0 11.8 80 1.8 N 4 9 2 5 - - 0.0
28/11:00pm 14.8 15.0 11.8 82 1.6 NNW 2 6 1 3 - - 0.0
28/10:30pm 14.9 15.1 11.9 82 1.6 N 2 6 1 3 - - 0.0
28/10:00pm 15.0 14.8 11.8 81 1.7 NNW 4 7 2 4 - - 0.0
28/09:30pm 15.0 14.5 12.1 83 1.6 N 6 9 3 5 - - 0.0
28/09:00pm 14.9 14.7 11.7 81 1.7 NNE 4 6 2 3 - - 0.0
28/08:30pm 15.3 15.8 11.7 79 2.0 CALM 0 0 0 0 - - 0.0
28/08:00pm 14.7 14.8 10.3 75 2.3 CALM 0 0 0 0 - - 0.0
28/07:30pm 15.5 15.5 9.8 69 3.0 CALM 0 0 0 0 - - 0.0
28/07:00pm 16.8 16.1 10.2 65 3.5 WNW 4 7 2 4 - - 0.0
28/06:30pm 17.1 16.1 10.2 64 3.7 NW 6 9 3 5 - - 0.0
28/06:00pm 16.5 16.5 11.0 70 3.0 NW 2 7 1 4 - - 0.0
28/05:30pm 16.8 17.0 10.6 67 3.3 CALM 0 6 0 3 - - 0.0
28/05:00pm 17.7 17.7 11.3 66 3.5 NW 2 4 1 2 - - 0.0
28/04:30pm 18.9 19.0 11.5 62 4.1 NNW 2 4 1 2 - - 0.0
28/04:00pm 19.6 20.1 11.6 60 4.4 CALM 0 0 0 0 - - 0.0
28/03:30pm 19.9 19.2 11.4 58 4.7 NNW 6 11 3 6 - - 0.0
28/03:00pm 20.5 19.6 10.6 53 5.4 NNW 6 9 3 5 - - 0.0
28/02:30pm 20.7 20.9 10.5 52 5.6 CALM 0 2 0 1 - - 0.0
28/02:00pm 20.3 19.7 10.4 53 5.4 N 4 9 2 5 - - 0.0
28/01:30pm 18.9 17.7 9.7 55 4.9 NNW 6 11 3 6 - - 0.0
28/01:00pm 19.6 18.7 10.6 56 4.9 N 6 9 3 5 - - 0.0
28/12:30pm 18.6 17.7 10.7 60 4.3 N 6 9 3 5 - - 0.0
28/12:00pm 18.7 18.3 9.8 56 4.7 NNE 2 6 1 3 - - 0.0
28/11:30am 18.5 18.0 10.8 61 4.2 NE 4 7 2 4 - - 0.0
28/11:00am 18.2 18.3 10.3 60 4.2 CALM 0 0 0 0 - - 0.0
28/10:30am 17.5 17.5 9.7 60 4.1 CALM 0 0 0 0 - - 0.0
28/10:00am 15.8 15.9 10.3 70 2.9 CALM 0 0 0 0 - - 0.0
28/09:30am 13.6 13.0 9.1 74 2.3 W 2 7 1 4 - - 0.0
28/09:00am 13.2 13.2 9.8 80 1.8 CALM 0 0 0 0 - - 0.0
28/08:30am 12.0 12.0 9.9 87 1.1 CALM 0 0 0 0 - - 0.0
28/08:00am 10.0 9.9 9.5 97 0.3 CALM 0 0 0 0 - - 0.0
28/07:30am 8.3 7.8 7.9 97 0.2 CALM 0 0 0 0 - - 0.0
28/07:00am 7.3 6.5 6.6 95 0.3 CALM 0 0 0 0 - - 0.0
28/06:30am 8.1 7.5 7.3 95 0.4 CALM 0 0 0 0 - - 0.0
28/06:00am 8.2 7.6 7.4 95 0.4 CALM 0 0 0 0 - - 0.0
28/05:30am 8.8 8.3 8.0 95 0.4 CALM 0 0 0 0 - - 0.0
28/05:00am 8.9 8.5 8.1 95 0.4 CALM 0 0 0 0 - - 0.0
28/04:30am 9.6 9.4 9.1 97 0.2 CALM 0 4 0 2 - - 0.0
28/04:00am 9.3 9.0 8.8 97 0.2 CALM 0 0 0 0 - - 0.0
28/03:30am 8.9 8.6 8.5 97 0.2 CALM 0 0 0 0 - - 0.0
28/03:00am 8.4 7.9 7.8 96 0.3 CALM 0 0 0 0 - - 0.0
28/02:30am 8.1 7.5 7.5 96 0.3 CALM 0 0 0 0 - - 0.0
28/02:00am 7.9 7.2 7.1 95 0.4 CALM 0 0 0 0 - - 0.0
28/01:30am 8.6 8.1 7.8 95 0.4 CALM 0 0 0 0 - - 0.0
28/01:00am 8.3 7.7 7.2 93 0.5 CALM 0 0 0 0 - - 0.0
28/12:30am 8.8 8.2 7.6 92 0.6 CALM 0 0 0 0 - - 0.0
28/12:00am 9.5 9.2 8.6 94 0.4 CALM 0 0 0 0 - - 0.0
 
Date/Time
EST
Tmp

°C
App
Tmp
°C
Dew
Point
°C
Rel
Hum
%
Delta-T

°C
Wind Press
QNH
hPa
Press
MSL
hPa
Rain
since
9 am
mm
Dir
 
Spd
km/h
Gust
km/h
Spd
kts
Gust
kts
27/11:30pm 9.2 8.6 7.6 90 0.8 CALM 0 0 0 0 - - 0.0
27/11:00pm 10.4 10.2 9.0 91 0.7 CALM 0 0 0 0 - - 0.0
27/10:30pm 10.2 9.8 8.1 87 1.0 CALM 0 0 0 0 - - 0.0

Latest Capital City Observations: Canberra | Sydney | Melbourne | Brisbane | Adelaide | Perth | Hobart | Darwin

Other Formats:

Comma delimited format used in spreadsheet applications
http://www.bom.gov.au/fwo/IDN60901/IDN60901.94760.axf

JavaScript Object Notation format (JSON) in row-major order
http://www.bom.gov.au/fwo/IDN60901/IDN60901.94760.json